sensor_id;sensor_type;location;lat;lon;timestamp;P1;durP1;ratioP1;P2;durP2;ratioP2
13267;SDS011;6702;47.068;15.458;2023-06-19T00:00:00;12.43;;;11.33;;
13267;SDS011;6702;47.068;15.458;2023-06-19T00:03:05;12.67;;;11.57;;
13267;SDS011;6702;47.068;15.458;2023-06-19T00:06:09;11.93;;;10.83;;
13267;SDS011;6702;47.068;15.458;2023-06-19T00:09:13;11.97;;;10.97;;
13267;SDS011;6702;47.068;15.458;2023-06-19T00:12:17;11.53;;;10.60;;
13267;SDS011;6702;47.068;15.458;2023-06-19T00:15:20;12.07;;;11.07;;
13267;SDS011;6702;47.068;15.458;2023-06-19T00:18:24;11.67;;;10.67;;
13267;SDS011;6702;47.068;15.458;2023-06-19T00:21:28;11.33;;;10.40;;
13267;SDS011;6702;47.068;15.458;2023-06-19T00:24:34;11.97;;;10.87;;
13267;SDS011;6702;47.068;15.458;2023-06-19T00:27:37;11.57;;;10.57;;
13267;SDS011;6702;47.068;15.458;2023-06-19T00:30:41;11.73;;;10.77;;
13267;SDS011;6702;47.068;15.458;2023-06-19T00:33:45;11.77;;;10.77;;
13267;SDS011;6702;47.068;15.458;2023-06-19T00:36:49;11.43;;;10.37;;
13267;SDS011;6702;47.068;15.458;2023-06-19T00:39:57;10.83;;;9.83;;
13267;SDS011;6702;47.068;15.458;2023-06-19T00:43:00;11.83;;;10.83;;
13267;SDS011;6702;47.068;15.458;2023-06-19T00:46:04;11.90;;;10.87;;
13267;SDS011;6702;47.068;15.458;2023-06-19T00:49:09;11.70;;;10.70;;
13267;SDS011;6702;47.068;15.458;2023-06-19T00:52:12;12.33;;;11.27;;
13267;SDS011;6702;47.068;15.458;2023-06-19T00:55:17;12.70;;;11.60;;
13267;SDS011;6702;47.068;15.458;2023-06-19T00:58:21;12.20;;;11.10;;
13267;SDS011;6702;47.068;15.458;2023-06-19T01:01:25;11.20;;;10.20;;
13267;SDS011;6702;47.068;15.458;2023-06-19T01:04:30;12.97;;;11.93;;
13267;SDS011;6702;47.068;15.458;2023-06-19T01:07:37;11.47;;;10.47;;
13267;SDS011;6702;47.068;15.458;2023-06-19T01:10:47;12.23;;;11.17;;
13267;SDS011;6702;47.068;15.458;2023-06-19T01:13:55;11.03;;;10.10;;
13267;SDS011;6702;47.068;15.458;2023-06-19T01:17:01;12.43;;;11.13;;
13267;SDS011;6702;47.068;15.458;2023-06-19T01:20:07;11.47;;;10.47;;
13267;SDS011;6702;47.068;15.458;2023-06-19T01:23:14;11.33;;;10.30;;
13267;SDS011;6702;47.068;15.458;2023-06-19T01:26:17;12.90;;;11.60;;
13267;SDS011;6702;47.068;15.458;2023-06-19T01:29:20;12.07;;;11.10;;
13267;SDS011;6702;47.068;15.458;2023-06-19T01:32:25;12.23;;;11.23;;
13267;SDS011;6702;47.068;15.458;2023-06-19T01:35:34;12.17;;;11.17;;
13267;SDS011;6702;47.068;15.458;2023-06-19T01:38:42;11.47;;;10.57;;
13267;SDS011;6702;47.068;15.458;2023-06-19T01:41:46;11.17;;;10.10;;
13267;SDS011;6702;47.068;15.458;2023-06-19T01:44:50;12.53;;;11.33;;
13267;SDS011;6702;47.068;15.458;2023-06-19T01:47:54;12.10;;;11.10;;
13267;SDS011;6702;47.068;15.458;2023-06-19T01:50:58;11.93;;;10.93;;
13267;SDS011;6702;47.068;15.458;2023-06-19T01:54:02;11.53;;;10.63;;
13267;SDS011;6702;47.068;15.458;2023-06-19T01:57:07;12.40;;;11.17;;
13267;SDS011;6702;47.068;15.458;2023-06-19T02:00:11;12.60;;;11.50;;
13267;SDS011;6702;47.068;15.458;2023-06-19T02:03:14;11.73;;;10.73;;
13267;SDS011;6702;47.068;15.458;2023-06-19T02:06:18;12.43;;;11.27;;
13267;SDS011;6702;47.068;15.458;2023-06-19T02:09:24;13.13;;;11.93;;
13267;SDS011;6702;47.068;15.458;2023-06-19T02:12:27;13.00;;;11.67;;
13267;SDS011;6702;47.068;15.458;2023-06-19T02:15:30;11.60;;;10.50;;
13267;SDS011;6702;47.068;15.458;2023-06-19T02:18:33;12.77;;;11.57;;
13267;SDS011;6702;47.068;15.458;2023-06-19T02:21:37;12.33;;;11.33;;
13267;SDS011;6702;47.068;15.458;2023-06-19T02:24:41;11.87;;;10.90;;
13267;SDS011;6702;47.068;15.458;2023-06-19T02:27:45;12.60;;;11.40;;
13267;SDS011;6702;47.068;15.458;2023-06-19T02:30:49;12.53;;;11.33;;
13267;SDS011;6702;47.068;15.458;2023-06-19T02:33:52;12.47;;;11.37;;
13267;SDS011;6702;47.068;15.458;2023-06-19T02:36:55;12.67;;;11.57;;
13267;SDS011;6702;47.068;15.458;2023-06-19T02:40:00;12.70;;;11.60;;
13267;SDS011;6702;47.068;15.458;2023-06-19T02:43:04;11.73;;;10.70;;
13267;SDS011;6702;47.068;15.458;2023-06-19T02:46:07;12.27;;;11.23;;
13267;SDS011;6702;47.068;15.458;2023-06-19T02:49:13;11.50;;;10.50;;
13267;SDS011;6702;47.068;15.458;2023-06-19T02:52:16;12.93;;;11.63;;
13267;SDS011;6702;47.068;15.458;2023-06-19T02:55:21;12.70;;;11.60;;
13267;SDS011;6702;47.068;15.458;2023-06-19T02:58:24;11.67;;;10.67;;
13267;SDS011;6702;47.068;15.458;2023-06-19T03:01:28;11.30;;;10.40;;
13267;SDS011;6702;47.068;15.458;2023-06-19T03:04:31;13.20;;;12.00;;
13267;SDS011;6702;47.068;15.458;2023-06-19T03:07:34;11.47;;;10.47;;
13267;SDS011;6702;47.068;15.458;2023-06-19T03:10:39;12.90;;;11.80;;
13267;SDS011;6702;47.068;15.458;2023-06-19T03:13:46;11.47;;;10.27;;
13267;SDS011;6702;47.068;15.458;2023-06-19T03:16:50;11.43;;;10.43;;
13267;SDS011;6702;47.068;15.458;2023-06-19T03:19:53;10.67;;;9.77;;
13267;SDS011;6702;47.068;15.458;2023-06-19T03:22:56;14.10;;;12.07;;
13267;SDS011;6702;47.068;15.458;2023-06-19T03:26:01;12.67;;;11.47;;
13267;SDS011;6702;47.068;15.458;2023-06-19T03:29:04;11.93;;;10.93;;
13267;SDS011;6702;47.068;15.458;2023-06-19T03:32:07;12.50;;;11.43;;
13267;SDS011;6702;47.068;15.458;2023-06-19T03:35:11;12.27;;;11.27;;
13267;SDS011;6702;47.068;15.458;2023-06-19T03:38:14;12.90;;;11.53;;
13267;SDS011;6702;47.068;15.458;2023-06-19T03:41:19;12.60;;;11.57;;
13267;SDS011;6702;47.068;15.458;2023-06-19T03:44:22;13.07;;;11.97;;
13267;SDS011;6702;47.068;15.458;2023-06-19T03:47:25;12.07;;;10.97;;
13267;SDS011;6702;47.068;15.458;2023-06-19T03:50:28;14.50;;;12.47;;
13267;SDS011;6702;47.068;15.458;2023-06-19T03:53:32;11.97;;;10.97;;
13267;SDS011;6702;47.068;15.458;2023-06-19T03:56:37;13.20;;;12.00;;
13267;SDS011;6702;47.068;15.458;2023-06-19T03:59:41;12.53;;;11.33;;
13267;SDS011;6702;47.068;15.458;2023-06-19T04:02:44;12.43;;;11.40;;
13267;SDS011;6702;47.068;15.458;2023-06-19T04:05:48;13.20;;;12.03;;
13267;SDS011;6702;47.068;15.458;2023-06-19T04:08:52;12.10;;;11.10;;
13267;SDS011;6702;47.068;15.458;2023-06-19T04:11:56;11.40;;;10.47;;
13267;SDS011;6702;47.068;15.458;2023-06-19T04:14:59;15.63;;;13.27;;
13267;SDS011;6702;47.068;15.458;2023-06-19T04:18:03;14.00;;;12.70;;
13267;SDS011;6702;47.068;15.458;2023-06-19T04:21:06;12.83;;;11.73;;
13267;SDS011;6702;47.068;15.458;2023-06-19T04:24:09;12.90;;;11.90;;
13267;SDS011;6702;47.068;15.458;2023-06-19T04:27:14;13.13;;;11.77;;
13267;SDS011;6702;47.068;15.458;2023-06-19T04:30:17;16.30;;;12.90;;
13267;SDS011;6702;47.068;15.458;2023-06-19T04:33:22;14.30;;;12.90;;
13267;SDS011;6702;47.068;15.458;2023-06-19T04:36:26;13.50;;;12.23;;
13267;SDS011;6702;47.068;15.458;2023-06-19T04:39:29;14.43;;;13.20;;
13267;SDS011;6702;47.068;15.458;2023-06-19T04:42:34;14.67;;;13.30;;
13267;SDS011;6702;47.068;15.458;2023-06-19T04:45:39;15.47;;;13.97;;
13267;SDS011;6702;47.068;15.458;2023-06-19T04:48:43;14.80;;;13.50;;
13267;SDS011;6702;47.068;15.458;2023-06-19T04:51:46;13.93;;;12.83;;
13267;SDS011;6702;47.068;15.458;2023-06-19T04:54:50;14.43;;;13.13;;
13267;SDS011;6702;47.068;15.458;2023-06-19T04:57:54;13.83;;;12.73;;
13267;SDS011;6702;47.068;15.458;2023-06-19T05:00:57;13.57;;;12.37;;
13267;SDS011;6702;47.068;15.458;2023-06-19T05:04:01;15.40;;;13.87;;
13267;SDS011;6702;47.068;15.458;2023-06-19T05:07:04;14.87;;;13.37;;
13267;SDS011;6702;47.068;15.458;2023-06-19T05:10:08;14.63;;;13.10;;
13267;SDS011;6702;47.068;15.458;2023-06-19T05:13:14;13.53;;;12.43;;
13267;SDS011;6702;47.068;15.458;2023-06-19T05:16:19;15.30;;;13.90;;
13267;SDS011;6702;47.068;15.458;2023-06-19T05:19:24;15.03;;;13.53;;
13267;SDS011;6702;47.068;15.458;2023-06-19T05:22:27;15.80;;;14.30;;
13267;SDS011;6702;47.068;15.458;2023-06-19T05:25:32;15.87;;;14.43;;
13267;SDS011;6702;47.068;15.458;2023-06-19T05:28:37;13.63;;;12.23;;
13267;SDS011;6702;47.068;15.458;2023-06-19T05:31:40;13.30;;;12.10;;
13267;SDS011;6702;47.068;15.458;2023-06-19T05:34:43;14.70;;;12.70;;
13267;SDS011;6702;47.068;15.458;2023-06-19T05:37:46;15.93;;;14.30;;
13267;SDS011;6702;47.068;15.458;2023-06-19T05:40:50;15.17;;;13.20;;
13267;SDS011;6702;47.068;15.458;2023-06-19T05:43:55;14.57;;;13.20;;
13267;SDS011;6702;47.068;15.458;2023-06-19T05:46:58;15.80;;;14.30;;
13267;SDS011;6702;47.068;15.458;2023-06-19T05:50:01;15.90;;;14.30;;
13267;SDS011;6702;47.068;15.458;2023-06-19T05:53:05;15.07;;;13.63;;
13267;SDS011;6702;47.068;15.458;2023-06-19T05:56:08;15.90;;;14.10;;
13267;SDS011;6702;47.068;15.458;2023-06-19T05:59:12;15.77;;;14.10;;
13267;SDS011;6702;47.068;15.458;2023-06-19T06:02:16;15.60;;;14.20;;
13267;SDS011;6702;47.068;15.458;2023-06-19T06:05:21;14.40;;;12.97;;
13267;SDS011;6702;47.068;15.458;2023-06-19T06:08:25;15.53;;;14.20;;
13267;SDS011;6702;47.068;15.458;2023-06-19T06:11:29;16.40;;;14.17;;
13267;SDS011;6702;47.068;15.458;2023-06-19T06:14:34;16.70;;;14.70;;
13267;SDS011;6702;47.068;15.458;2023-06-19T06:17:37;15.10;;;13.80;;
13267;SDS011;6702;47.068;15.458;2023-06-19T06:20:40;14.57;;;13.23;;
13267;SDS011;6702;47.068;15.458;2023-06-19T06:23:44;15.67;;;14.10;;
13267;SDS011;6702;47.068;15.458;2023-06-19T06:26:49;15.67;;;14.27;;
13267;SDS011;6702;47.068;15.458;2023-06-19T06:29:53;16.20;;;14.50;;
13267;SDS011;6702;47.068;15.458;2023-06-19T06:32:56;15.83;;;14.33;;
13267;SDS011;6702;47.068;15.458;2023-06-19T06:36:00;15.50;;;14.10;;
13267;SDS011;6702;47.068;15.458;2023-06-19T06:39:03;15.67;;;14.07;;
13267;SDS011;6702;47.068;15.458;2023-06-19T06:42:07;15.33;;;14.13;;
13267;SDS011;6702;47.068;15.458;2023-06-19T06:45:11;14.80;;;13.33;;
13267;SDS011;6702;47.068;15.458;2023-06-19T06:48:15;14.97;;;13.63;;
13267;SDS011;6702;47.068;15.458;2023-06-19T06:51:18;16.77;;;15.13;;
13267;SDS011;6702;47.068;15.458;2023-06-19T06:54:23;15.98;;;14.48;;
13267;SDS011;6702;47.068;15.458;2023-06-19T06:57:26;14.95;;;13.30;;
13267;SDS011;6702;47.068;15.458;2023-06-19T07:00:31;14.88;;;13.57;;
13267;SDS011;6702;47.068;15.458;2023-06-19T07:03:34;16.38;;;14.88;;
13267;SDS011;6702;47.068;15.458;2023-06-19T07:06:37;16.63;;;14.57;;
13267;SDS011;6702;47.068;15.458;2023-06-19T07:09:40;15.60;;;14.10;;
13267;SDS011;6702;47.068;15.458;2023-06-19T07:12:44;16.73;;;14.98;;
13267;SDS011;6702;47.068;15.458;2023-06-19T07:15:50;16.55;;;14.65;;
13267;SDS011;6702;47.068;15.458;2023-06-19T07:18:53;15.63;;;14.13;;
13267;SDS011;6702;47.068;15.458;2023-06-19T07:21:56;16.25;;;14.23;;
13267;SDS011;6702;47.068;15.458;2023-06-19T07:25:00;15.75;;;14.27;;
13267;SDS011;6702;47.068;15.458;2023-06-19T07:28:03;15.60;;;13.60;;
13267;SDS011;6702;47.068;15.458;2023-06-19T07:31:08;14.13;;;12.93;;
13267;SDS011;6702;47.068;15.458;2023-06-19T07:34:11;14.32;;;13.23;;
13267;SDS011;6702;47.068;15.458;2023-06-19T07:37:14;15.85;;;14.55;;
13267;SDS011;6702;47.068;15.458;2023-06-19T07:40:19;16.15;;;14.60;;
13267;SDS011;6702;47.068;15.458;2023-06-19T07:43:23;15.93;;;14.38;;
13267;SDS011;6702;47.068;15.458;2023-06-19T07:46:28;14.00;;;12.70;;
13267;SDS011;6702;47.068;15.458;2023-06-19T07:49:31;15.73;;;14.30;;
13267;SDS011;6702;47.068;15.458;2023-06-19T07:52:34;17.85;;;13.80;;
13267;SDS011;6702;47.068;15.458;2023-06-19T07:55:37;17.42;;;13.55;;
13267;SDS011;6702;47.068;15.458;2023-06-19T07:58:40;18.80;;;16.13;;
13267;SDS011;6702;47.068;15.458;2023-06-19T08:01:45;16.90;;;15.20;;
13267;SDS011;6702;47.068;15.458;2023-06-19T08:04:48;16.98;;;15.25;;
13267;SDS011;6702;47.068;15.458;2023-06-19T08:07:51;17.15;;;15.30;;
13267;SDS011;6702;47.068;15.458;2023-06-19T08:10:55;17.15;;;14.23;;
13267;SDS011;6702;47.068;15.458;2023-06-19T08:13:58;16.58;;;15.00;;
13267;SDS011;6702;47.068;15.458;2023-06-19T08:17:02;15.23;;;13.85;;
13267;SDS011;6702;47.068;15.458;2023-06-19T08:20:06;15.45;;;13.65;;
13267;SDS011;6702;47.068;15.458;2023-06-19T08:23:11;15.68;;;14.43;;
13267;SDS011;6702;47.068;15.458;2023-06-19T08:26:14;15.75;;;14.45;;
13267;SDS011;6702;47.068;15.458;2023-06-19T08:29:17;15.85;;;14.25;;
13267;SDS011;6702;47.068;15.458;2023-06-19T08:32:22;17.52;;;15.70;;
13267;SDS011;6702;47.068;15.458;2023-06-19T08:35:26;14.40;;;13.10;;
13267;SDS011;6702;47.068;15.458;2023-06-19T08:38:29;16.40;;;15.00;;
13267;SDS011;6702;47.068;15.458;2023-06-19T08:41:32;15.98;;;14.68;;
13267;SDS011;6702;47.068;15.458;2023-06-19T08:44:36;15.13;;;13.93;;
13267;SDS011;6702;47.068;15.458;2023-06-19T08:47:41;16.17;;;14.80;;
13267;SDS011;6702;47.068;15.458;2023-06-19T08:50:44;17.17;;;15.55;;
13267;SDS011;6702;47.068;15.458;2023-06-19T08:53:48;16.05;;;14.65;;
13267;SDS011;6702;47.068;15.458;2023-06-19T08:56:53;15.77;;;14.52;;
13267;SDS011;6702;47.068;15.458;2023-06-19T08:59:58;15.75;;;14.20;;
13267;SDS011;6702;47.068;15.458;2023-06-19T09:03:03;15.07;;;13.98;;
13267;SDS011;6702;47.068;15.458;2023-06-19T09:06:15;15.48;;;14.35;;
13267;SDS011;6702;47.068;15.458;2023-06-19T09:09:19;15.07;;;13.88;;
13267;SDS011;6702;47.068;15.458;2023-06-19T09:12:23;14.98;;;13.88;;
13267;SDS011;6702;47.068;15.458;2023-06-19T09:15:27;15.65;;;14.45;;
13267;SDS011;6702;47.068;15.458;2023-06-19T09:18:43;13.73;;;12.68;;
13267;SDS011;6702;47.068;15.458;2023-06-19T09:21:47;15.18;;;13.88;;
13267;SDS011;6702;47.068;15.458;2023-06-19T09:24:50;15.95;;;14.68;;
13267;SDS011;6702;47.068;15.458;2023-06-19T09:27:54;14.20;;;13.05;;
13267;SDS011;6702;47.068;15.458;2023-06-19T09:30:58;15.52;;;14.30;;
13267;SDS011;6702;47.068;15.458;2023-06-19T09:34:03;15.80;;;14.30;;
13267;SDS011;6702;47.068;15.458;2023-06-19T09:37:07;33.75;;;16.58;;
13267;SDS011;6702;47.068;15.458;2023-06-19T09:40:12;14.45;;;13.35;;
13267;SDS011;6702;47.068;15.458;2023-06-19T09:43:15;14.52;;;13.23;;
13267;SDS011;6702;47.068;15.458;2023-06-19T09:46:22;14.20;;;13.10;;
13267;SDS011;6702;47.068;15.458;2023-06-19T09:49:31;14.10;;;13.10;;
13267;SDS011;6702;47.068;15.458;2023-06-19T09:52:36;12.70;;;11.82;;
13267;SDS011;6702;47.068;15.458;2023-06-19T09:55:40;14.25;;;13.07;;
13267;SDS011;6702;47.068;15.458;2023-06-19T09:58:44;13.07;;;12.07;;
13267;SDS011;6702;47.068;15.458;2023-06-19T10:01:48;14.13;;;13.00;;
13267;SDS011;6702;47.068;15.458;2023-06-19T10:04:54;13.15;;;11.88;;
13267;SDS011;6702;47.068;15.458;2023-06-19T10:07:59;12.75;;;11.82;;
13267;SDS011;6702;47.068;15.458;2023-06-19T10:11:03;14.68;;;13.65;;
13267;SDS011;6702;47.068;15.458;2023-06-19T10:14:06;14.38;;;13.27;;
13267;SDS011;6702;47.068;15.458;2023-06-19T10:17:10;14.32;;;13.23;;
13267;SDS011;6702;47.068;15.458;2023-06-19T10:20:22;15.18;;;13.98;;
13267;SDS011;6702;47.068;15.458;2023-06-19T10:23:35;13.93;;;12.93;;
13267;SDS011;6702;47.068;15.458;2023-06-19T10:26:38;14.48;;;13.10;;
13267;SDS011;6702;47.068;15.458;2023-06-19T10:29:42;13.05;;;11.85;;
13267;SDS011;6702;47.068;15.458;2023-06-19T10:32:58;13.23;;;12.07;;
13267;SDS011;6702;47.068;15.458;2023-06-19T10:36:12;13.90;;;12.45;;
13267;SDS011;6702;47.068;15.458;2023-06-19T10:39:17;13.27;;;12.07;;
13267;SDS011;6702;47.068;15.458;2023-06-19T10:42:20;12.98;;;11.88;;
13267;SDS011;6702;47.068;15.458;2023-06-19T10:45:23;14.15;;;12.95;;
13267;SDS011;6702;47.068;15.458;2023-06-19T10:48:30;13.75;;;12.65;;
13267;SDS011;6702;47.068;15.458;2023-06-19T10:51:35;14.38;;;13.30;;
13267;SDS011;6702;47.068;15.458;2023-06-19T10:54:39;13.57;;;12.57;;
13267;SDS011;6702;47.068;15.458;2023-06-19T10:57:44;14.13;;;12.93;;
13267;SDS011;6702;47.068;15.458;2023-06-19T11:00:47;13.68;;;12.25;;
13267;SDS011;6702;47.068;15.458;2023-06-19T11:03:50;13.07;;;11.95;;
13267;SDS011;6702;47.068;15.458;2023-06-19T11:06:55;14.10;;;12.68;;
13267;SDS011;6702;47.068;15.458;2023-06-19T11:09:59;14.32;;;13.13;;
13267;SDS011;6702;47.068;15.458;2023-06-19T11:13:02;13.68;;;12.48;;
13267;SDS011;6702;47.068;15.458;2023-06-19T11:16:05;13.63;;;12.65;;
13267;SDS011;6702;47.068;15.458;2023-06-19T11:19:09;13.43;;;12.43;;
13267;SDS011;6702;47.068;15.458;2023-06-19T11:22:17;12.75;;;11.85;;
13267;SDS011;6702;47.068;15.458;2023-06-19T11:25:20;14.45;;;13.43;;
13267;SDS011;6702;47.068;15.458;2023-06-19T11:28:26;13.32;;;12.40;;
13267;SDS011;6702;47.068;15.458;2023-06-19T11:31:30;13.50;;;12.50;;
13267;SDS011;6702;47.068;15.458;2023-06-19T11:34:36;13.90;;;12.63;;
13267;SDS011;6702;47.068;15.458;2023-06-19T11:37:41;14.70;;;13.60;;
13267;SDS011;6702;47.068;15.458;2023-06-19T11:40:46;14.35;;;13.02;;
13267;SDS011;6702;47.068;15.458;2023-06-19T11:43:49;14.13;;;12.93;;
13267;SDS011;6702;47.068;15.458;2023-06-19T11:46:56;15.45;;;13.88;;
13267;SDS011;6702;47.068;15.458;2023-06-19T11:50:00;15.13;;;13.82;;
13267;SDS011;6702;47.068;15.458;2023-06-19T11:53:10;14.70;;;13.35;;
13267;SDS011;6702;47.068;15.458;2023-06-19T11:56:14;14.95;;;13.60;;
13267;SDS011;6702;47.068;15.458;2023-06-19T11:59:17;19.00;;;14.30;;
13267;SDS011;6702;47.068;15.458;2023-06-19T12:02:21;15.13;;;13.93;;
13267;SDS011;6702;47.068;15.458;2023-06-19T12:05:24;14.38;;;13.15;;
13267;SDS011;6702;47.068;15.458;2023-06-19T12:08:28;14.65;;;13.35;;
13267;SDS011;6702;47.068;15.458;2023-06-19T12:11:32;15.00;;;13.80;;
13267;SDS011;6702;47.068;15.458;2023-06-19T12:14:35;14.35;;;13.35;;
13267;SDS011;6702;47.068;15.458;2023-06-19T12:17:38;14.70;;;13.52;;
13267;SDS011;6702;47.068;15.458;2023-06-19T12:20:42;14.35;;;13.25;;
13267;SDS011;6702;47.068;15.458;2023-06-19T12:23:47;13.93;;;12.82;;
13267;SDS011;6702;47.068;15.458;2023-06-19T12:26:50;14.48;;;13.38;;
13267;SDS011;6702;47.068;15.458;2023-06-19T12:29:54;14.50;;;13.48;;
13267;SDS011;6702;47.068;15.458;2023-06-19T12:32:57;14.68;;;12.70;;
13267;SDS011;6702;47.068;15.458;2023-06-19T12:36:01;15.00;;;13.85;;
13267;SDS011;6702;47.068;15.458;2023-06-19T12:39:06;15.10;;;14.00;;
13267;SDS011;6702;47.068;15.458;2023-06-19T12:42:16;13.25;;;12.25;;
13267;SDS011;6702;47.068;15.458;2023-06-19T12:45:19;14.98;;;13.60;;
13267;SDS011;6702;47.068;15.458;2023-06-19T12:48:22;15.25;;;14.07;;
13267;SDS011;6702;47.068;15.458;2023-06-19T12:51:26;16.75;;;15.55;;
13267;SDS011;6702;47.068;15.458;2023-06-19T12:54:33;15.70;;;14.55;;
13267;SDS011;6702;47.068;15.458;2023-06-19T12:57:37;16.77;;;15.50;;
13267;SDS011;6702;47.068;15.458;2023-06-19T13:00:41;15.73;;;14.52;;
13267;SDS011;6702;47.068;15.458;2023-06-19T13:03:45;16.40;;;15.20;;
13267;SDS011;6702;47.068;15.458;2023-06-19T13:06:48;16.33;;;15.18;;
13267;SDS011;6702;47.068;15.458;2023-06-19T13:09:53;16.50;;;15.10;;
13267;SDS011;6702;47.068;15.458;2023-06-19T13:12:56;15.85;;;14.65;;
13267;SDS011;6702;47.068;15.458;2023-06-19T13:16:00;15.43;;;14.32;;
13267;SDS011;6702;47.068;15.458;2023-06-19T13:19:03;15.07;;;13.85;;
13267;SDS011;6702;47.068;15.458;2023-06-19T13:22:06;15.38;;;14.07;;
13267;SDS011;6702;47.068;15.458;2023-06-19T13:25:11;14.27;;;13.18;;
13267;SDS011;6702;47.068;15.458;2023-06-19T13:28:17;14.80;;;13.77;;
13267;SDS011;6702;47.068;15.458;2023-06-19T13:31:20;14.60;;;13.57;;
13267;SDS011;6702;47.068;15.458;2023-06-19T13:34:26;14.98;;;13.77;;
13267;SDS011;6702;47.068;15.458;2023-06-19T13:37:29;14.82;;;13.63;;
13267;SDS011;6702;47.068;15.458;2023-06-19T13:40:34;14.27;;;13.18;;
13267;SDS011;6702;47.068;15.458;2023-06-19T13:43:37;15.32;;;14.02;;
13267;SDS011;6702;47.068;15.458;2023-06-19T13:46:41;13.82;;;12.82;;
13267;SDS011;6702;47.068;15.458;2023-06-19T13:49:44;15.25;;;14.15;;
13267;SDS011;6702;47.068;15.458;2023-06-19T13:52:48;14.18;;;13.13;;
13267;SDS011;6702;47.068;15.458;2023-06-19T13:55:52;14.02;;;12.93;;
13267;SDS011;6702;47.068;15.458;2023-06-19T13:58:57;14.60;;;13.25;;
13267;SDS011;6702;47.068;15.458;2023-06-19T14:02:00;14.18;;;13.13;;
13267;SDS011;6702;47.068;15.458;2023-06-19T14:05:04;13.73;;;12.57;;
13267;SDS011;6702;47.068;15.458;2023-06-19T14:08:08;14.05;;;12.68;;
13267;SDS011;6702;47.068;15.458;2023-06-19T14:11:12;14.90;;;13.75;;
13267;SDS011;6702;47.068;15.458;2023-06-19T14:14:15;14.27;;;13.18;;
13267;SDS011;6702;47.068;15.458;2023-06-19T14:17:20;13.73;;;12.65;;
13267;SDS011;6702;47.068;15.458;2023-06-19T14:20:23;14.18;;;13.07;;
13267;SDS011;6702;47.068;15.458;2023-06-19T14:23:27;14.40;;;13.40;;
13267;SDS011;6702;47.068;15.458;2023-06-19T14:26:31;14.20;;;13.10;;
13267;SDS011;6702;47.068;15.458;2023-06-19T14:29:35;15.15;;;14.02;;
13267;SDS011;6702;47.068;15.458;2023-06-19T14:32:38;14.90;;;13.65;;
13267;SDS011;6702;47.068;15.458;2023-06-19T14:35:41;15.63;;;14.13;;
13267;SDS011;6702;47.068;15.458;2023-06-19T14:38:47;14.30;;;13.20;;
13267;SDS011;6702;47.068;15.458;2023-06-19T14:41:52;13.10;;;12.13;;
13267;SDS011;6702;47.068;15.458;2023-06-19T14:44:55;15.70;;;14.10;;
13267;SDS011;6702;47.068;15.458;2023-06-19T14:47:58;15.40;;;14.20;;
13267;SDS011;6702;47.068;15.458;2023-06-19T14:51:02;13.93;;;12.88;;
13267;SDS011;6702;47.068;15.458;2023-06-19T14:54:06;14.82;;;13.63;;
13267;SDS011;6702;47.068;15.458;2023-06-19T14:57:10;15.23;;;13.98;;
13267;SDS011;6702;47.068;15.458;2023-06-19T15:00:14;14.13;;;13.13;;
13267;SDS011;6702;47.068;15.458;2023-06-19T15:03:17;14.70;;;13.40;;
13267;SDS011;6702;47.068;15.458;2023-06-19T15:06:20;15.15;;;13.95;;
13267;SDS011;6702;47.068;15.458;2023-06-19T15:09:24;14.48;;;13.20;;
13267;SDS011;6702;47.068;15.458;2023-06-19T15:12:29;15.30;;;13.88;;
13267;SDS011;6702;47.068;15.458;2023-06-19T15:15:33;15.10;;;13.88;;
13267;SDS011;6702;47.068;15.458;2023-06-19T15:18:36;14.80;;;13.43;;
13267;SDS011;6702;47.068;15.458;2023-06-19T15:21:40;15.48;;;13.93;;
13267;SDS011;6702;47.068;15.458;2023-06-19T15:24:44;13.80;;;12.77;;
13267;SDS011;6702;47.068;15.458;2023-06-19T15:27:48;15.45;;;14.27;;
13267;SDS011;6702;47.068;15.458;2023-06-19T15:30:52;14.00;;;13.00;;
13267;SDS011;6702;47.068;15.458;2023-06-19T15:33:55;15.50;;;14.15;;
13267;SDS011;6702;47.068;15.458;2023-06-19T15:36:58;14.95;;;13.48;;
13267;SDS011;6702;47.068;15.458;2023-06-19T15:40:01;14.75;;;13.43;;
13267;SDS011;6702;47.068;15.458;2023-06-19T15:43:06;14.73;;;13.63;;
13267;SDS011;6702;47.068;15.458;2023-06-19T15:46:10;13.30;;;12.40;;
13267;SDS011;6702;47.068;15.458;2023-06-19T15:49:15;16.35;;;14.73;;
13267;SDS011;6702;47.068;15.458;2023-06-19T15:52:19;14.27;;;13.13;;
13267;SDS011;6702;47.068;15.458;2023-06-19T15:55:23;14.88;;;13.70;;
13267;SDS011;6702;47.068;15.458;2023-06-19T15:58:29;14.85;;;13.52;;
13267;SDS011;6702;47.068;15.458;2023-06-19T16:01:32;13.70;;;12.80;;
13267;SDS011;6702;47.068;15.458;2023-06-19T16:04:36;14.50;;;13.50;;
13267;SDS011;6702;47.068;15.458;2023-06-19T16:07:40;14.70;;;13.35;;
13267;SDS011;6702;47.068;15.458;2023-06-19T16:10:43;14.75;;;13.40;;
13267;SDS011;6702;47.068;15.458;2023-06-19T16:13:48;13.57;;;12.50;;
13267;SDS011;6702;47.068;15.458;2023-06-19T16:16:51;14.82;;;13.70;;
13267;SDS011;6702;47.068;15.458;2023-06-19T16:19:55;15.40;;;13.95;;
13267;SDS011;6702;47.068;15.458;2023-06-19T16:22:59;13.82;;;12.57;;
13267;SDS011;6702;47.068;15.458;2023-06-19T16:26:03;14.45;;;13.35;;
13267;SDS011;6702;47.068;15.458;2023-06-19T16:29:07;14.23;;;13.23;;
13267;SDS011;6702;47.068;15.458;2023-06-19T16:32:10;13.73;;;12.73;;
13267;SDS011;6702;47.068;15.458;2023-06-19T16:35:14;14.13;;;12.98;;
13267;SDS011;6702;47.068;15.458;2023-06-19T16:38:23;14.35;;;13.25;;
13267;SDS011;6702;47.068;15.458;2023-06-19T16:41:26;13.60;;;12.63;;
13267;SDS011;6702;47.068;15.458;2023-06-19T16:44:31;13.90;;;12.40;;
13267;SDS011;6702;47.068;15.458;2023-06-19T16:47:34;14.82;;;13.50;;
13267;SDS011;6702;47.068;15.458;2023-06-19T16:50:37;13.38;;;12.38;;
13267;SDS011;6702;47.068;15.458;2023-06-19T16:53:40;14.18;;;12.90;;
13267;SDS011;6702;47.068;15.458;2023-06-19T16:56:44;13.98;;;12.55;;
13267;SDS011;6702;47.068;15.458;2023-06-19T16:59:48;15.05;;;13.80;;
13267;SDS011;6702;47.068;15.458;2023-06-19T17:02:51;13.93;;;12.82;;
13267;SDS011;6702;47.068;15.458;2023-06-19T17:05:57;15.40;;;14.00;;
13267;SDS011;6702;47.068;15.458;2023-06-19T17:09:00;14.83;;;13.37;;
13267;SDS011;6702;47.068;15.458;2023-06-19T17:12:04;14.40;;;13.15;;
13267;SDS011;6702;47.068;15.458;2023-06-19T17:15:09;14.57;;;13.47;;
13267;SDS011;6702;47.068;15.458;2023-06-19T17:18:12;13.70;;;12.70;;
13267;SDS011;6702;47.068;15.458;2023-06-19T17:21:16;14.40;;;13.20;;
13267;SDS011;6702;47.068;15.458;2023-06-19T17:24:19;12.90;;;12.00;;
13267;SDS011;6702;47.068;15.458;2023-06-19T17:27:23;13.63;;;12.43;;
13267;SDS011;6702;47.068;15.458;2023-06-19T17:30:28;12.90;;;12.00;;
13267;SDS011;6702;47.068;15.458;2023-06-19T17:33:31;12.33;;;11.43;;
13267;SDS011;6702;47.068;15.458;2023-06-19T17:36:34;14.90;;;13.50;;
13267;SDS011;6702;47.068;15.458;2023-06-19T17:39:37;14.67;;;13.23;;
13267;SDS011;6702;47.068;15.458;2023-06-19T17:42:41;13.73;;;12.60;;
13267;SDS011;6702;47.068;15.458;2023-06-19T17:45:46;14.90;;;13.70;;
13267;SDS011;6702;47.068;15.458;2023-06-19T17:48:49;12.90;;;11.90;;
13267;SDS011;6702;47.068;15.458;2023-06-19T17:51:52;14.87;;;13.47;;
13267;SDS011;6702;47.068;15.458;2023-06-19T17:54:55;13.83;;;12.53;;